Blue Bay — V2CE6 — position and weather

sailwx.info

Track history (hours):
 
Tides and Currents Weather Stations Pressure Air Temp Water Temp Dewpoint Dewpoint Depression Visibility Wind Speed Wind Dir Waves Ship Positions

Blue Bay

Last reported at 2014-Oct-20 20:21 UTC. Time now 2014-Oct-21 13:39 UTC.
Position N 54°06' W 006°15'.

Length 89 m; draft 5.5 m.

Type: Cargo ship. MMSI: 304519000.

Date/timePositionNaut miles runAvg speedWind from/ knotsBaromVisibWave heightAir tempDewpointWater temp
2014-Oct-20 20:21N 54°06' W 006°15'5 5.9
2014-Oct-20 19:28N 54°02' W 006°08'5 4.0
2014-Oct-20 18:16N 53°59' W 006°01'0 0.0
2014-Oct-20 17:31N 53°59' W 006°01'0 0.0
2014-Oct-20 16:19N 53°59' W 006°01'0 0.0
2014-Oct-20 15:31N 53°59' W 006°01'0 0.0
2014-Oct-20 14:31N 53°59' W 006°01'0 0.0
2014-Oct-20 13:22N 53°59' W 006°01'0 0.0
2014-Oct-20 12:31N 53°59' W 006°01'0 0.0
2014-Oct-20 09:25N 53°59' W 006°01'0 0.0
2014-Oct-20 08:25N 53°59' W 006°01'0 0.1
2014-Oct-20 07:31N 53°59' W 006°01'2 1.6
2014-Oct-20 06:33N 53°59' W 005°59'1 1.0
2014-Oct-20 05:34N 53°59' W 006°01'1 1.2
2014-Oct-20 04:33N 53°57' W 006°01'7 7.4
2014-Oct-20 03:33N 53°50' W 006°00'80 8.7
2014-Oct-19 18:23N 52°31' W 005°51'810.3
2014-Oct-19 17:34N 52°22' W 005°49'253 6.5
2014-Oct-18 02:26N 49°40' W 000°40'9 9.7
2014-Oct-18 01:33N 49°38' W 000°27'1010.4
2014-Oct-18 00:33N 49°32' W 000°13'1110.7
2014-Oct-17 23:33N 49°27' E 000°01'1211.5
2014-Oct-17 22:33N 49°26' E 000°19'1210.6
2014-Oct-17 21:26N 49°26' E 000°37'  
2014-Oct-13 15:34N 49°27' E 000°40'8 8.2
2014-Oct-13 14:33N 49°28' E 000°27'1110.5
2014-Oct-13 13:34N 49°26' E 000°11'10 9.9
2014-Oct-13 12:34N 49°29' W 000°03'1111.3
2014-Oct-13 11:33N 49°34' W 000°19'1312.5
2014-Oct-13 10:33N 49°38' W 000°37'  
Track history (hours):
 
Tides and Currents Weather Stations Pressure Air Temp Water Temp Dewpoint Dewpoint Depression Visibility Wind Speed Wind Dir Waves Ship Positions

Blue Bay

Last reported at 2014-Oct-20 20:21 UTC. Time now 2014-Oct-21 13:39 UTC.
Position N 54°06' W 006°15'.

Length 89 m; draft 5.5 m.

Type: Cargo ship. MMSI: 304519000.

Date/timePositionNaut miles runAvg speedWind from/ knotsBaromVisibWave heightAir tempDewpointWater temp
2014-Oct-20 20:21N 54°06' W 006°15'5 5.9
2014-Oct-20 19:28N 54°02' W 006°08'5 4.0
2014-Oct-20 18:16N 53°59' W 006°01'0 0.0
2014-Oct-20 17:31N 53°59' W 006°01'0 0.0
2014-Oct-20 16:19N 53°59' W 006°01'0 0.0
2014-Oct-20 15:31N 53°59' W 006°01'0 0.0
2014-Oct-20 14:31N 53°59' W 006°01'0 0.0
2014-Oct-20 13:22N 53°59' W 006°01'0 0.0
2014-Oct-20 12:31N 53°59' W 006°01'0 0.0
2014-Oct-20 09:25N 53°59' W 006°01'0 0.0
2014-Oct-20 08:25N 53°59' W 006°01'0 0.1
2014-Oct-20 07:31N 53°59' W 006°01'2 1.6
2014-Oct-20 06:33N 53°59' W 005°59'1 1.0
2014-Oct-20 05:34N 53°59' W 006°01'1 1.2
2014-Oct-20 04:33N 53°57' W 006°01'7 7.4
2014-Oct-20 03:33N 53°50' W 006°00'80 8.7
2014-Oct-19 18:23N 52°31' W 005°51'810.3
2014-Oct-19 17:34N 52°22' W 005°49'253 6.5
2014-Oct-18 02:26N 49°40' W 000°40'9 9.7
2014-Oct-18 01:33N 49°38' W 000°27'1010.4
2014-Oct-18 00:33N 49°32' W 000°13'1110.7
2014-Oct-17 23:33N 49°27' E 000°01'1211.5
2014-Oct-17 22:33N 49°26' E 000°19'1210.6
2014-Oct-17 21:26N 49°26' E 000°37'  
2014-Oct-13 15:34N 49°27' E 000°40'8 8.2
2014-Oct-13 14:33N 49°28' E 000°27'1110.5
2014-Oct-13 13:34N 49°26' E 000°11'10 9.9
2014-Oct-13 12:34N 49°29' W 000°03'1111.3
2014-Oct-13 11:33N 49°34' W 000°19'1312.5
2014-Oct-13 10:33N 49°38' W 000°37'  

Dump ship's entire track history